sensor_id;sensor_type;location;lat;lon;timestamp;P1;durP1;ratioP1;P2;durP2;ratioP2
572;SDS011;271;51.114;13.780;2023-03-20T00:01:18;20.40;;;6.00;;
572;SDS011;271;51.114;13.780;2023-03-20T00:04:08;21.17;;;6.20;;
572;SDS011;271;51.114;13.780;2023-03-20T00:06:58;22.70;;;6.90;;
572;SDS011;271;51.114;13.780;2023-03-20T00:09:46;19.30;;;6.40;;
572;SDS011;271;51.114;13.780;2023-03-20T00:12:34;21.80;;;7.50;;
572;SDS011;271;51.114;13.780;2023-03-20T00:15:23;20.80;;;6.47;;
572;SDS011;271;51.114;13.780;2023-03-20T00:18:14;21.03;;;7.17;;
572;SDS011;271;51.114;13.780;2023-03-20T00:21:04;20.53;;;6.70;;
572;SDS011;271;51.114;13.780;2023-03-20T00:23:58;27.17;;;8.77;;
572;SDS011;271;51.114;13.780;2023-03-20T00:26:45;23.60;;;9.60;;
572;SDS011;271;51.114;13.780;2023-03-20T00:29:34;24.30;;;9.07;;
572;SDS011;271;51.114;13.780;2023-03-20T00:32:22;22.97;;;8.50;;
572;SDS011;271;51.114;13.780;2023-03-20T00:35:14;21.30;;;7.70;;
572;SDS011;271;51.114;13.780;2023-03-20T00:38:05;22.33;;;7.87;;
572;SDS011;271;51.114;13.780;2023-03-20T00:40:54;22.57;;;7.53;;
572;SDS011;271;51.114;13.780;2023-03-20T00:43:41;22.73;;;8.10;;
572;SDS011;271;51.114;13.780;2023-03-20T00:46:30;21.77;;;7.70;;
572;SDS011;271;51.114;13.780;2023-03-20T00:49:23;20.47;;;7.23;;
572;SDS011;271;51.114;13.780;2023-03-20T00:52:13;20.30;;;6.50;;
572;SDS011;271;51.114;13.780;2023-03-20T00:55:03;22.90;;;7.83;;
572;SDS011;271;51.114;13.780;2023-03-20T00:57:53;21.17;;;7.60;;
572;SDS011;271;51.114;13.780;2023-03-20T01:00:43;22.20;;;7.17;;
572;SDS011;271;51.114;13.780;2023-03-20T01:03:32;22.23;;;7.80;;
572;SDS011;271;51.114;13.780;2023-03-20T01:06:20;23.50;;;7.37;;
572;SDS011;271;51.114;13.780;2023-03-20T01:09:07;21.13;;;7.13;;
572;SDS011;271;51.114;13.780;2023-03-20T01:11:55;21.67;;;7.30;;
572;SDS011;271;51.114;13.780;2023-03-20T01:14:46;21.30;;;6.73;;
572;SDS011;271;51.114;13.780;2023-03-20T01:17:37;23.57;;;8.37;;
572;SDS011;271;51.114;13.780;2023-03-20T01:20:26;20.43;;;7.53;;
572;SDS011;271;51.114;13.780;2023-03-20T01:23:15;22.63;;;7.47;;
572;SDS011;271;51.114;13.780;2023-03-20T01:26:02;20.73;;;7.37;;
572;SDS011;271;51.114;13.780;2023-03-20T01:28:50;21.93;;;8.03;;
572;SDS011;271;51.114;13.780;2023-03-20T01:31:40;21.37;;;7.10;;
572;SDS011;271;51.114;13.780;2023-03-20T01:34:28;23.73;;;8.63;;
572;SDS011;271;51.114;13.780;2023-03-20T01:37:16;24.87;;;8.03;;
572;SDS011;271;51.114;13.780;2023-03-20T01:40:12;23.00;;;8.33;;
572;SDS011;271;51.114;13.780;2023-03-20T01:43:12;21.47;;;7.50;;
572;SDS011;271;51.114;13.780;2023-03-20T01:46:02;22.00;;;8.17;;
572;SDS011;271;51.114;13.780;2023-03-20T01:49:06;21.67;;;7.93;;
572;SDS011;271;51.114;13.780;2023-03-20T01:52:14;22.27;;;7.57;;
572;SDS011;271;51.114;13.780;2023-03-20T01:55:02;20.70;;;7.00;;
572;SDS011;271;51.114;13.780;2023-03-20T01:57:50;23.10;;;7.37;;
572;SDS011;271;51.114;13.780;2023-03-20T02:00:42;21.60;;;7.73;;
572;SDS011;271;51.114;13.780;2023-03-20T02:03:31;22.23;;;8.10;;
572;SDS011;271;51.114;13.780;2023-03-20T02:06:21;20.53;;;7.20;;
572;SDS011;271;51.114;13.780;2023-03-20T02:09:11;21.10;;;7.37;;
572;SDS011;271;51.114;13.780;2023-03-20T02:11:59;21.97;;;7.87;;
572;SDS011;271;51.114;13.780;2023-03-20T02:14:48;22.97;;;8.13;;
572;SDS011;271;51.114;13.780;2023-03-20T02:17:37;21.70;;;7.37;;
572;SDS011;271;51.114;13.780;2023-03-20T02:20:32;20.90;;;6.70;;
572;SDS011;271;51.114;13.780;2023-03-20T02:26:59;20.53;;;6.30;;
572;SDS011;271;51.114;13.780;2023-03-20T02:33:16;20.42;;;6.18;;
572;SDS011;271;51.114;13.780;2023-03-20T02:40:01;21.03;;;7.30;;
572;SDS011;271;51.114;13.780;2023-03-20T02:42:57;22.10;;;6.40;;
572;SDS011;271;51.114;13.780;2023-03-20T02:45:51;20.60;;;6.23;;
572;SDS011;271;51.114;13.780;2023-03-20T02:48:45;19.50;;;5.90;;
572;SDS011;271;51.114;13.780;2023-03-20T02:51:38;20.07;;;6.20;;
572;SDS011;271;51.114;13.780;2023-03-20T02:54:29;20.03;;;5.90;;
572;SDS011;271;51.114;13.780;2023-03-20T02:57:29;19.13;;;5.80;;
572;SDS011;271;51.114;13.780;2023-03-20T03:00:25;20.70;;;5.60;;
572;SDS011;271;51.114;13.780;2023-03-20T03:03:19;20.97;;;6.70;;
572;SDS011;271;51.114;13.780;2023-03-20T03:06:14;20.67;;;5.90;;
572;SDS011;271;51.114;13.780;2023-03-20T03:09:09;20.30;;;6.60;;
572;SDS011;271;51.114;13.780;2023-03-20T03:12:00;20.97;;;5.67;;
572;SDS011;271;51.114;13.780;2023-03-20T03:14:54;20.10;;;6.40;;
572;SDS011;271;51.114;13.780;2023-03-20T03:17:46;20.60;;;6.30;;
572;SDS011;271;51.114;13.780;2023-03-20T03:20:36;20.97;;;6.60;;
572;SDS011;271;51.114;13.780;2023-03-20T03:23:26;22.47;;;6.33;;
572;SDS011;271;51.114;13.780;2023-03-20T03:26:17;20.13;;;6.40;;
572;SDS011;271;51.114;13.780;2023-03-20T03:29:10;19.43;;;5.80;;
572;SDS011;271;51.114;13.780;2023-03-20T03:32:02;21.47;;;6.17;;
572;SDS011;271;51.114;13.780;2023-03-20T03:34:52;19.83;;;5.90;;
572;SDS011;271;51.114;13.780;2023-03-20T03:37:42;19.40;;;5.60;;
572;SDS011;271;51.114;13.780;2023-03-20T03:40:38;19.00;;;5.50;;
572;SDS011;271;51.114;13.780;2023-03-20T03:43:31;20.73;;;5.80;;
572;SDS011;271;51.114;13.780;2023-03-20T03:46:22;19.80;;;5.20;;
572;SDS011;271;51.114;13.780;2023-03-20T03:49:17;19.50;;;5.57;;
572;SDS011;271;51.114;13.780;2023-03-20T03:52:09;20.13;;;5.67;;
572;SDS011;271;51.114;13.780;2023-03-20T03:55:02;18.80;;;5.37;;
572;SDS011;271;51.114;13.780;2023-03-20T03:57:54;18.93;;;5.30;;
572;SDS011;271;51.114;13.780;2023-03-20T04:00:47;20.03;;;6.00;;
572;SDS011;271;51.114;13.780;2023-03-20T04:03:37;19.60;;;5.50;;
572;SDS011;271;51.114;13.780;2023-03-20T04:06:28;20.23;;;6.00;;
572;SDS011;271;51.114;13.780;2023-03-20T04:09:15;21.17;;;5.90;;
572;SDS011;271;51.114;13.780;2023-03-20T04:12:03;20.20;;;5.80;;
572;SDS011;271;51.114;13.780;2023-03-20T04:14:51;21.07;;;6.40;;
572;SDS011;271;51.114;13.780;2023-03-20T04:17:39;20.27;;;6.37;;
572;SDS011;271;51.114;13.780;2023-03-20T04:20:27;19.10;;;5.10;;
572;SDS011;271;51.114;13.780;2023-03-20T04:23:16;19.87;;;5.60;;
572;SDS011;271;51.114;13.780;2023-03-20T04:26:04;21.23;;;6.10;;
572;SDS011;271;51.114;13.780;2023-03-20T04:28:52;20.07;;;5.97;;
572;SDS011;271;51.114;13.780;2023-03-20T04:31:40;19.50;;;4.93;;
572;SDS011;271;51.114;13.780;2023-03-20T04:34:27;20.07;;;6.13;;
572;SDS011;271;51.114;13.780;2023-03-20T04:37:15;21.30;;;5.87;;
572;SDS011;271;51.114;13.780;2023-03-20T04:40:04;19.47;;;5.50;;
572;SDS011;271;51.114;13.780;2023-03-20T04:42:53;18.93;;;5.03;;
572;SDS011;271;51.114;13.780;2023-03-20T04:45:41;19.97;;;5.53;;
572;SDS011;271;51.114;13.780;2023-03-20T04:48:31;19.13;;;5.47;;
572;SDS011;271;51.114;13.780;2023-03-20T04:51:19;19.57;;;5.73;;
572;SDS011;271;51.114;13.780;2023-03-20T04:54:07;19.50;;;5.53;;
572;SDS011;271;51.114;13.780;2023-03-20T04:56:56;20.77;;;7.03;;
572;SDS011;271;51.114;13.780;2023-03-20T04:59:44;19.60;;;5.50;;
572;SDS011;271;51.114;13.780;2023-03-20T05:02:31;20.00;;;5.32;;
572;SDS011;271;51.114;13.780;2023-03-20T05:05:19;20.60;;;5.70;;
572;SDS011;271;51.114;13.780;2023-03-20T05:08:08;19.37;;;5.60;;
572;SDS011;271;51.114;13.780;2023-03-20T05:10:56;19.00;;;5.27;;
572;SDS011;271;51.114;13.780;2023-03-20T05:13:45;18.70;;;5.37;;
572;SDS011;271;51.114;13.780;2023-03-20T05:16:33;19.30;;;5.10;;
572;SDS011;271;51.114;13.780;2023-03-20T05:19:21;22.70;;;5.80;;
572;SDS011;271;51.114;13.780;2023-03-20T05:22:08;21.87;;;6.07;;
572;SDS011;271;51.114;13.780;2023-03-20T05:24:56;20.73;;;6.00;;
572;SDS011;271;51.114;13.780;2023-03-20T05:27:45;20.30;;;5.40;;
572;SDS011;271;51.114;13.780;2023-03-20T05:30:34;22.17;;;5.13;;
572;SDS011;271;51.114;13.780;2023-03-20T05:33:22;20.30;;;5.43;;
572;SDS011;271;51.114;13.780;2023-03-20T05:36:10;18.47;;;4.60;;
572;SDS011;271;51.114;13.780;2023-03-20T05:38:57;20.50;;;5.30;;
572;SDS011;271;51.114;13.780;2023-03-20T05:41:45;19.33;;;5.13;;
572;SDS011;271;51.114;13.780;2023-03-20T05:44:33;19.20;;;4.23;;
572;SDS011;271;51.114;13.780;2023-03-20T05:47:22;19.50;;;4.73;;
572;SDS011;271;51.114;13.780;2023-03-20T05:50:10;21.93;;;4.77;;
572;SDS011;271;51.114;13.780;2023-03-20T05:52:58;18.20;;;4.33;;
572;SDS011;271;51.114;13.780;2023-03-20T05:55:46;18.13;;;4.23;;
572;SDS011;271;51.114;13.780;2023-03-20T05:58:34;18.30;;;3.83;;
572;SDS011;271;51.114;13.780;2023-03-20T06:01:21;18.13;;;4.27;;
572;SDS011;271;51.114;13.780;2023-03-20T06:04:10;18.83;;;3.83;;
572;SDS011;271;51.114;13.780;2023-03-20T06:06:58;17.87;;;4.03;;
572;SDS011;271;51.114;13.780;2023-03-20T06:09:46;19.17;;;3.70;;
572;SDS011;271;51.114;13.780;2023-03-20T06:12:33;17.80;;;3.80;;
572;SDS011;271;51.114;13.780;2023-03-20T06:15:21;17.80;;;3.60;;
572;SDS011;271;51.114;13.780;2023-03-20T06:18:09;17.30;;;3.53;;
572;SDS011;271;51.114;13.780;2023-03-20T06:20:58;17.57;;;3.97;;
572;SDS011;271;51.114;13.780;2023-03-20T06:23:46;19.40;;;3.67;;
572;SDS011;271;51.114;13.780;2023-03-20T06:26:34;16.83;;;3.40;;
572;SDS011;271;51.114;13.780;2023-03-20T06:29:22;16.67;;;3.17;;
572;SDS011;271;51.114;13.780;2023-03-20T06:32:09;16.70;;;3.30;;
572;SDS011;271;51.114;13.780;2023-03-20T06:34:59;17.40;;;3.77;;
572;SDS011;271;51.114;13.780;2023-03-20T06:37:48;17.70;;;4.07;;
572;SDS011;271;51.114;13.780;2023-03-20T06:40:36;19.13;;;3.50;;
572;SDS011;271;51.114;13.780;2023-03-20T06:43:23;17.40;;;3.60;;
572;SDS011;271;51.114;13.780;2023-03-20T06:46:11;19.07;;;3.50;;
572;SDS011;271;51.114;13.780;2023-03-20T06:48:59;17.30;;;3.40;;
572;SDS011;271;51.114;13.780;2023-03-20T06:51:47;17.37;;;3.57;;
572;SDS011;271;51.114;13.780;2023-03-20T06:54:36;16.50;;;3.20;;
572;SDS011;271;51.114;13.780;2023-03-20T06:57:24;17.53;;;3.43;;
572;SDS011;271;51.114;13.780;2023-03-20T07:00:12;20.10;;;3.63;;
572;SDS011;271;51.114;13.780;2023-03-20T07:03:00;17.80;;;3.20;;
572;SDS011;271;51.114;13.780;2023-03-20T07:05:48;17.37;;;3.60;;
572;SDS011;271;51.114;13.780;2023-03-20T07:08:37;17.47;;;3.40;;
572;SDS011;271;51.114;13.780;2023-03-20T07:11:27;18.40;;;3.43;;
572;SDS011;271;51.114;13.780;2023-03-20T07:14:15;18.00;;;3.33;;
572;SDS011;271;51.114;13.780;2023-03-20T07:17:03;17.27;;;3.47;;
572;SDS011;271;51.114;13.780;2023-03-20T07:19:51;17.40;;;2.90;;
572;SDS011;271;51.114;13.780;2023-03-20T07:22:39;17.73;;;3.37;;
572;SDS011;271;51.114;13.780;2023-03-20T07:25:27;16.63;;;3.23;;
572;SDS011;271;51.114;13.780;2023-03-20T07:28:16;17.23;;;3.00;;
572;SDS011;271;51.114;13.780;2023-03-20T07:31:04;16.33;;;2.93;;
572;SDS011;271;51.114;13.780;2023-03-20T07:33:52;17.70;;;3.47;;
572;SDS011;271;51.114;13.780;2023-03-20T07:36:40;16.97;;;3.13;;
572;SDS011;271;51.114;13.780;2023-03-20T07:39:28;17.80;;;3.90;;
572;SDS011;271;51.114;13.780;2023-03-20T07:42:17;16.60;;;3.50;;
572;SDS011;271;51.114;13.780;2023-03-20T07:45:06;17.37;;;4.37;;
572;SDS011;271;51.114;13.780;2023-03-20T07:47:55;17.43;;;3.23;;
572;SDS011;271;51.114;13.780;2023-03-20T07:50:43;16.70;;;3.70;;
572;SDS011;271;51.114;13.780;2023-03-20T07:53:30;17.23;;;3.73;;
572;SDS011;271;51.114;13.780;2023-03-20T07:56:18;20.00;;;4.57;;
572;SDS011;271;51.114;13.780;2023-03-20T07:59:06;19.53;;;4.90;;
572;SDS011;271;51.114;13.780;2023-03-20T08:01:56;17.70;;;3.60;;
572;SDS011;271;51.114;13.780;2023-03-20T08:04:43;18.37;;;4.33;;
572;SDS011;271;51.114;13.780;2023-03-20T08:07:32;18.90;;;4.70;;
572;SDS011;271;51.114;13.780;2023-03-20T08:10:20;21.67;;;5.17;;
572;SDS011;271;51.114;13.780;2023-03-20T08:13:08;19.37;;;5.30;;
572;SDS011;271;51.114;13.780;2023-03-20T08:15:55;20.10;;;5.10;;
572;SDS011;271;51.114;13.780;2023-03-20T08:18:44;19.93;;;5.37;;
572;SDS011;271;51.114;13.780;2023-03-20T08:21:32;19.00;;;4.60;;
572;SDS011;271;51.114;13.780;2023-03-20T08:24:20;18.93;;;4.97;;
572;SDS011;271;51.114;13.780;2023-03-20T08:27:08;19.50;;;5.57;;
572;SDS011;271;51.114;13.780;2023-03-20T08:29:55;18.60;;;4.47;;
572;SDS011;271;51.114;13.780;2023-03-20T08:32:44;18.87;;;5.00;;
572;SDS011;271;51.114;13.780;2023-03-20T08:35:33;20.27;;;5.20;;
572;SDS011;271;51.114;13.780;2023-03-20T08:38:21;19.87;;;5.33;;
572;SDS011;271;51.114;13.780;2023-03-20T08:41:09;18.40;;;4.90;;
572;SDS011;271;51.114;13.780;2023-03-20T08:43:57;19.93;;;6.00;;
572;SDS011;271;51.114;13.780;2023-03-20T08:46:45;21.37;;;6.93;;
572;SDS011;271;51.114;13.780;2023-03-20T08:49:33;21.10;;;6.00;;
572;SDS011;271;51.114;13.780;2023-03-20T08:52:22;20.80;;;7.03;;
572;SDS011;271;51.114;13.780;2023-03-20T08:55:10;20.97;;;6.63;;
572;SDS011;271;51.114;13.780;2023-03-20T08:57:59;22.83;;;7.37;;
572;SDS011;271;51.114;13.780;2023-03-20T09:00:47;20.60;;;7.00;;
572;SDS011;271;51.114;13.780;2023-03-20T09:03:35;19.83;;;6.90;;
572;SDS011;271;51.114;13.780;2023-03-20T09:06:23;22.00;;;6.90;;
572;SDS011;271;51.114;13.780;2023-03-20T09:09:12;20.43;;;7.53;;
572;SDS011;271;51.114;13.780;2023-03-20T09:12:03;21.63;;;7.17;;
572;SDS011;271;51.114;13.780;2023-03-20T09:14:52;20.93;;;6.93;;
572;SDS011;271;51.114;13.780;2023-03-20T09:17:40;23.20;;;6.77;;
572;SDS011;271;51.114;13.780;2023-03-20T09:20:27;21.53;;;7.33;;
572;SDS011;271;51.114;13.780;2023-03-20T09:23:15;21.63;;;6.67;;
572;SDS011;271;51.114;13.780;2023-03-20T09:26:05;26.70;;;10.87;;
572;SDS011;271;51.114;13.780;2023-03-20T09:28:53;28.83;;;12.93;;
572;SDS011;271;51.114;13.780;2023-03-20T09:31:40;31.47;;;15.10;;
572;SDS011;271;51.114;13.780;2023-03-20T09:34:28;31.80;;;15.23;;
572;SDS011;271;51.114;13.780;2023-03-20T09:37:23;33.73;;;16.17;;
572;SDS011;271;51.114;13.780;2023-03-20T09:40:19;35.40;;;15.80;;
572;SDS011;271;51.114;13.780;2023-03-20T09:43:16;33.30;;;15.60;;
572;SDS011;271;51.114;13.780;2023-03-20T09:46:45;33.43;;;14.90;;
572;SDS011;271;51.114;13.780;2023-03-20T09:49:47;30.40;;;13.13;;
572;SDS011;271;51.114;13.780;2023-03-20T09:52:44;30.33;;;13.60;;
572;SDS011;271;51.114;13.780;2023-03-20T09:55:39;30.83;;;13.90;;
572;SDS011;271;51.114;13.780;2023-03-20T09:58:30;32.30;;;13.37;;
572;SDS011;271;51.114;13.780;2023-03-20T10:01:20;30.50;;;12.90;;
572;SDS011;271;51.114;13.780;2023-03-20T10:04:10;30.00;;;13.63;;
572;SDS011;271;51.114;13.780;2023-03-20T11:05:56;30.60;;;14.27;;
572;SDS011;271;51.114;13.780;2023-03-20T11:08:48;28.30;;;13.33;;
572;SDS011;271;51.114;13.780;2023-03-20T11:11:38;28.27;;;12.97;;
572;SDS011;271;51.114;13.780;2023-03-20T11:14:32;27.17;;;12.60;;
572;SDS011;271;51.114;13.780;2023-03-20T11:17:20;28.00;;;12.40;;
572;SDS011;271;51.114;13.780;2023-03-20T11:20:09;28.83;;;12.90;;
572;SDS011;271;51.114;13.780;2023-03-20T11:23:02;28.80;;;11.73;;
572;SDS011;271;51.114;13.780;2023-03-20T11:25:55;30.67;;;13.70;;
572;SDS011;271;51.114;13.780;2023-03-20T11:28:54;29.33;;;12.90;;
572;SDS011;271;51.114;13.780;2023-03-20T11:31:43;29.60;;;13.63;;
572;SDS011;271;51.114;13.780;2023-03-20T11:34:31;32.07;;;13.97;;
572;SDS011;271;51.114;13.780;2023-03-20T11:41:23;33.57;;;14.93;;
572;SDS011;271;51.114;13.780;2023-03-20T11:52:21;33.90;;;15.23;;
572;SDS011;271;51.114;13.780;2023-03-20T11:55:56;37.23;;;16.83;;
572;SDS011;271;51.114;13.780;2023-03-20T12:06:37;35.30;;;17.40;;
572;SDS011;271;51.114;13.780;2023-03-20T12:09:34;34.00;;;16.57;;
572;SDS011;271;51.114;13.780;2023-03-20T12:12:30;35.07;;;18.00;;
572;SDS011;271;51.114;13.780;2023-03-20T12:15:23;35.93;;;17.63;;
572;SDS011;271;51.114;13.780;2023-03-20T12:18:15;36.43;;;17.07;;
572;SDS011;271;51.114;13.780;2023-03-20T12:21:11;33.37;;;17.77;;
572;SDS011;271;51.114;13.780;2023-03-20T12:24:08;35.50;;;16.57;;
572;SDS011;271;51.114;13.780;2023-03-20T12:27:05;38.93;;;18.10;;
572;SDS011;271;51.114;13.780;2023-03-20T12:30:03;39.60;;;18.63;;
572;SDS011;271;51.114;13.780;2023-03-20T12:32:58;38.77;;;18.97;;
572;SDS011;271;51.114;13.780;2023-03-20T12:35:50;38.57;;;18.53;;
572;SDS011;271;51.114;13.780;2023-03-20T13:21:22;40.13;;;21.33;;
572;SDS011;271;51.114;13.780;2023-03-20T13:24:20;42.03;;;20.83;;
572;SDS011;271;51.114;13.780;2023-03-20T13:27:21;43.00;;;21.90;;
572;SDS011;271;51.114;13.780;2023-03-20T13:30:24;42.40;;;21.03;;
572;SDS011;271;51.114;13.780;2023-03-20T13:33:22;41.00;;;20.27;;
572;SDS011;271;51.114;13.780;2023-03-20T13:36:26;39.47;;;19.50;;
572;SDS011;271;51.114;13.780;2023-03-20T13:39:23;42.00;;;20.23;;
572;SDS011;271;51.114;13.780;2023-03-20T13:42:16;40.33;;;19.20;;
572;SDS011;271;51.114;13.780;2023-03-20T13:45:11;36.77;;;18.70;;
572;SDS011;271;51.114;13.780;2023-03-20T13:48:18;35.23;;;16.43;;
572;SDS011;271;51.114;13.780;2023-03-20T13:51:16;40.87;;;19.60;;
572;SDS011;271;51.114;13.780;2023-03-20T13:54:17;38.60;;;19.50;;
572;SDS011;271;51.114;13.780;2023-03-20T13:57:26;39.57;;;19.00;;
572;SDS011;271;51.114;13.780;2023-03-20T14:00:32;37.17;;;18.10;;
572;SDS011;271;51.114;13.780;2023-03-20T14:03:26;35.03;;;17.63;;
572;SDS011;271;51.114;13.780;2023-03-20T14:06:39;38.27;;;18.60;;
572;SDS011;271;51.114;13.780;2023-03-20T14:09:38;38.17;;;19.47;;
572;SDS011;271;51.114;13.780;2023-03-20T14:12:26;33.67;;;17.37;;
572;SDS011;271;51.114;13.780;2023-03-20T14:15:21;37.10;;;18.00;;
572;SDS011;271;51.114;13.780;2023-03-20T14:18:13;39.90;;;19.10;;
572;SDS011;271;51.114;13.780;2023-03-20T14:21:08;39.33;;;19.10;;
572;SDS011;271;51.114;13.780;2023-03-20T14:23:59;38.80;;;18.80;;
572;SDS011;271;51.114;13.780;2023-03-20T14:26:51;38.80;;;19.00;;
572;SDS011;271;51.114;13.780;2023-03-20T14:29:42;38.97;;;20.13;;
572;SDS011;271;51.114;13.780;2023-03-20T14:32:31;39.93;;;20.27;;
572;SDS011;271;51.114;13.780;2023-03-20T14:35:22;37.60;;;19.37;;
572;SDS011;271;51.114;13.780;2023-03-20T14:38:19;40.13;;;19.37;;
572;SDS011;271;51.114;13.780;2023-03-20T14:41:11;37.27;;;17.63;;
572;SDS011;271;51.114;13.780;2023-03-20T14:44:14;37.13;;;18.77;;
572;SDS011;271;51.114;13.780;2023-03-20T14:47:15;39.83;;;19.80;;
572;SDS011;271;51.114;13.780;2023-03-20T14:50:11;40.87;;;20.40;;
572;SDS011;271;51.114;13.780;2023-03-20T14:53:08;46.60;;;22.90;;
572;SDS011;271;51.114;13.780;2023-03-20T14:56:06;41.60;;;23.17;;
572;SDS011;271;51.114;13.780;2023-03-20T14:58:56;45.03;;;23.90;;
572;SDS011;271;51.114;13.780;2023-03-20T15:01:57;48.30;;;22.97;;
572;SDS011;271;51.114;13.780;2023-03-20T15:04:45;42.10;;;21.03;;
572;SDS011;271;51.114;13.780;2023-03-20T15:07:35;42.53;;;21.80;;
572;SDS011;271;51.114;13.780;2023-03-20T15:10:26;41.93;;;21.40;;
572;SDS011;271;51.114;13.780;2023-03-20T15:13:18;42.73;;;21.67;;
572;SDS011;271;51.114;13.780;2023-03-20T15:16:12;43.67;;;22.07;;
572;SDS011;271;51.114;13.780;2023-03-20T15:19:05;43.00;;;21.63;;
572;SDS011;271;51.114;13.780;2023-03-20T15:22:01;42.87;;;22.37;;
572;SDS011;271;51.114;13.780;2023-03-20T15:24:52;47.20;;;24.47;;
572;SDS011;271;51.114;13.780;2023-03-20T15:27:42;45.23;;;23.40;;
572;SDS011;271;51.114;13.780;2023-03-20T15:30:29;46.50;;;23.57;;
572;SDS011;271;51.114;13.780;2023-03-20T15:33:21;50.13;;;24.67;;
572;SDS011;271;51.114;13.780;2023-03-20T15:36:15;43.87;;;22.33;;
572;SDS011;271;51.114;13.780;2023-03-20T15:39:05;46.93;;;24.63;;
572;SDS011;271;51.114;13.780;2023-03-20T15:42:00;48.10;;;24.70;;
572;SDS011;271;51.114;13.780;2023-03-20T15:44:50;57.37;;;27.13;;
572;SDS011;271;51.114;13.780;2023-03-20T15:47:41;46.20;;;24.60;;
572;SDS011;271;51.114;13.780;2023-03-20T15:50:32;50.33;;;27.57;;
572;SDS011;271;51.114;13.780;2023-03-20T15:53:25;56.80;;;29.50;;
572;SDS011;271;51.114;13.780;2023-03-20T15:56:16;54.20;;;29.00;;
572;SDS011;271;51.114;13.780;2023-03-20T15:59:06;51.57;;;26.27;;
572;SDS011;271;51.114;13.780;2023-03-20T16:01:56;56.00;;;27.40;;
572;SDS011;271;51.114;13.780;2023-03-20T16:04:45;53.60;;;26.63;;
572;SDS011;271;51.114;13.780;2023-03-20T16:07:35;53.30;;;26.00;;
572;SDS011;271;51.114;13.780;2023-03-20T16:10:27;56.17;;;27.67;;
572;SDS011;271;51.114;13.780;2023-03-20T16:13:17;57.77;;;27.83;;
572;SDS011;271;51.114;13.780;2023-03-20T16:16:05;56.93;;;29.07;;
572;SDS011;271;51.114;13.780;2023-03-20T16:18:57;55.47;;;26.47;;
572;SDS011;271;51.114;13.780;2023-03-20T16:21:46;51.10;;;26.13;;
572;SDS011;271;51.114;13.780;2023-03-20T16:24:37;57.13;;;28.77;;
572;SDS011;271;51.114;13.780;2023-03-20T16:27:28;59.33;;;27.63;;
572;SDS011;271;51.114;13.780;2023-03-20T16:30:18;56.30;;;27.83;;
572;SDS011;271;51.114;13.780;2023-03-20T16:33:13;53.07;;;26.60;;
572;SDS011;271;51.114;13.780;2023-03-20T16:36:12;54.63;;;28.67;;
572;SDS011;271;51.114;13.780;2023-03-20T16:39:05;60.13;;;30.33;;
572;SDS011;271;51.114;13.780;2023-03-20T16:41:56;56.53;;;28.80;;
572;SDS011;271;51.114;13.780;2023-03-20T16:44:53;54.30;;;26.57;;
572;SDS011;271;51.114;13.780;2023-03-20T16:47:42;58.93;;;29.20;;
572;SDS011;271;51.114;13.780;2023-03-20T16:50:32;56.20;;;29.80;;
572;SDS011;271;51.114;13.780;2023-03-20T16:53:21;63.97;;;29.60;;
572;SDS011;271;51.114;13.780;2023-03-20T16:56:11;54.87;;;27.93;;
572;SDS011;271;51.114;13.780;2023-03-20T16:59:04;55.80;;;27.33;;
572;SDS011;271;51.114;13.780;2023-03-20T17:01:55;54.10;;;26.97;;
572;SDS011;271;51.114;13.780;2023-03-20T17:04:46;61.80;;;29.60;;
572;SDS011;271;51.114;13.780;2023-03-20T17:07:34;58.60;;;29.20;;
572;SDS011;271;51.114;13.780;2023-03-20T17:10:22;58.27;;;28.43;;
572;SDS011;271;51.114;13.780;2023-03-20T17:13:13;57.50;;;27.77;;
572;SDS011;271;51.114;13.780;2023-03-20T17:16:01;54.07;;;25.73;;
572;SDS011;271;51.114;13.780;2023-03-20T17:18:58;51.47;;;24.87;;
572;SDS011;271;51.114;13.780;2023-03-20T17:21:47;53.17;;;26.70;;
572;SDS011;271;51.114;13.780;2023-03-20T17:24:35;49.70;;;25.17;;
572;SDS011;271;51.114;13.780;2023-03-20T17:27:23;48.47;;;24.20;;
572;SDS011;271;51.114;13.780;2023-03-20T17:30:13;51.67;;;26.00;;
572;SDS011;271;51.114;13.780;2023-03-20T17:33:04;49.53;;;25.03;;
572;SDS011;271;51.114;13.780;2023-03-20T17:35:58;54.43;;;27.23;;
572;SDS011;271;51.114;13.780;2023-03-20T17:38:46;49.50;;;23.70;;
572;SDS011;271;51.114;13.780;2023-03-20T17:41:34;45.37;;;21.00;;
572;SDS011;271;51.114;13.780;2023-03-20T17:44:22;41.47;;;20.37;;
572;SDS011;271;51.114;13.780;2023-03-20T17:47:11;43.50;;;21.93;;
572;SDS011;271;51.114;13.780;2023-03-20T17:50:00;45.43;;;21.00;;
572;SDS011;271;51.114;13.780;2023-03-20T17:52:50;41.53;;;18.77;;
572;SDS011;271;51.114;13.780;2023-03-20T17:55:38;43.00;;;18.80;;
572;SDS011;271;51.114;13.780;2023-03-20T17:58:26;42.70;;;20.23;;
572;SDS011;271;51.114;13.780;2023-03-20T18:01:14;40.63;;;18.53;;
572;SDS011;271;51.114;13.780;2023-03-20T18:04:02;41.20;;;17.03;;
572;SDS011;271;51.114;13.780;2023-03-20T18:06:50;41.00;;;19.17;;
572;SDS011;271;51.114;13.780;2023-03-20T18:09:40;42.73;;;19.70;;
572;SDS011;271;51.114;13.780;2023-03-20T18:12:29;41.77;;;19.00;;
572;SDS011;271;51.114;13.780;2023-03-20T18:15:19;42.23;;;18.83;;
572;SDS011;271;51.114;13.780;2023-03-20T18:18:07;43.50;;;21.53;;
572;SDS011;271;51.114;13.780;2023-03-20T18:20:55;44.67;;;19.90;;
572;SDS011;271;51.114;13.780;2023-03-20T18:23:44;43.50;;;19.97;;
572;SDS011;271;51.114;13.780;2023-03-20T18:26:33;41.20;;;18.70;;
572;SDS011;271;51.114;13.780;2023-03-20T18:29:21;41.80;;;19.30;;
572;SDS011;271;51.114;13.780;2023-03-20T18:32:09;42.37;;;19.70;;
572;SDS011;271;51.114;13.780;2023-03-20T18:34:57;45.20;;;18.70;;
572;SDS011;271;51.114;13.780;2023-03-20T18:37:45;39.00;;;17.87;;
572;SDS011;271;51.114;13.780;2023-03-20T18:40:33;38.13;;;16.97;;
572;SDS011;271;51.114;13.780;2023-03-20T18:43:23;34.90;;;15.67;;
572;SDS011;271;51.114;13.780;2023-03-20T18:46:11;35.23;;;16.47;;
572;SDS011;271;51.114;13.780;2023-03-20T18:49:00;36.80;;;17.70;;
572;SDS011;271;51.114;13.780;2023-03-20T18:51:48;37.17;;;17.83;;
572;SDS011;271;51.114;13.780;2023-03-20T18:54:35;36.70;;;17.97;;
572;SDS011;271;51.114;13.780;2023-03-20T18:57:23;35.13;;;15.27;;
572;SDS011;271;51.114;13.780;2023-03-20T19:00:20;33.67;;;16.80;;
572;SDS011;271;51.114;13.780;2023-03-20T19:03:09;33.50;;;16.27;;
572;SDS011;271;51.114;13.780;2023-03-20T19:05:57;35.90;;;16.70;;
572;SDS011;271;51.114;13.780;2023-03-20T19:08:46;29.60;;;13.13;;
572;SDS011;271;51.114;13.780;2023-03-20T19:11:34;30.60;;;12.70;;
572;SDS011;271;51.114;13.780;2023-03-20T19:14:22;29.10;;;12.07;;
572;SDS011;271;51.114;13.780;2023-03-20T19:17:12;31.53;;;13.67;;
572;SDS011;271;51.114;13.780;2023-03-20T19:19:59;29.50;;;12.40;;
572;SDS011;271;51.114;13.780;2023-03-20T19:22:47;28.33;;;12.33;;
572;SDS011;271;51.114;13.780;2023-03-20T19:25:35;28.07;;;11.20;;
572;SDS011;271;51.114;13.780;2023-03-20T19:28:24;30.90;;;12.27;;
572;SDS011;271;51.114;13.780;2023-03-20T19:31:13;30.93;;;13.40;;
572;SDS011;271;51.114;13.780;2023-03-20T19:34:02;27.90;;;11.97;;
572;SDS011;271;51.114;13.780;2023-03-20T19:36:50;34.13;;;11.77;;
572;SDS011;271;51.114;13.780;2023-03-20T19:39:38;29.80;;;12.70;;
572;SDS011;271;51.114;13.780;2023-03-20T19:42:25;29.77;;;12.17;;
572;SDS011;271;51.114;13.780;2023-03-20T19:45:13;30.93;;;11.63;;